sensor_id;sensor_type;location;lat;lon;timestamp;P1;durP1;ratioP1;P2;durP2;ratioP2
78183;SDS011;67442;44.570;18.610;2023-03-08T00:01:17;211.63;;;74.97;;
78183;SDS011;67442;44.570;18.610;2023-03-08T00:03:49;212.45;;;74.25;;
78183;SDS011;67442;44.570;18.610;2023-03-08T00:06:21;231.10;;;82.50;;
78183;SDS011;67442;44.570;18.610;2023-03-08T00:08:49;195.35;;;70.40;;
78183;SDS011;67442;44.570;18.610;2023-03-08T00:11:20;214.73;;;77.25;;
78183;SDS011;67442;44.570;18.610;2023-03-08T00:13:47;175.90;;;64.82;;
78183;SDS011;67442;44.570;18.610;2023-03-08T00:16:15;223.00;;;77.65;;
78183;SDS011;67442;44.570;18.610;2023-03-08T00:18:42;188.85;;;68.28;;
78183;SDS011;67442;44.570;18.610;2023-03-08T00:21:13;194.60;;;71.85;;
78183;SDS011;67442;44.570;18.610;2023-03-08T00:23:56;203.07;;;70.25;;
78183;SDS011;67442;44.570;18.610;2023-03-08T00:26:24;173.65;;;63.65;;
78183;SDS011;67442;44.570;18.610;2023-03-08T00:28:51;187.85;;;66.78;;
78183;SDS011;67442;44.570;18.610;2023-03-08T00:31:18;207.63;;;71.03;;
78183;SDS011;67442;44.570;18.610;2023-03-08T00:33:46;155.48;;;55.55;;
78183;SDS011;67442;44.570;18.610;2023-03-08T00:36:17;125.55;;;45.22;;
78183;SDS011;67442;44.570;18.610;2023-03-08T00:38:46;180.75;;;61.00;;
78183;SDS011;67442;44.570;18.610;2023-03-08T00:41:18;185.52;;;62.67;;
78183;SDS011;67442;44.570;18.610;2023-03-08T00:43:45;187.75;;;63.95;;
78183;SDS011;67442;44.570;18.610;2023-03-08T00:46:13;223.45;;;69.07;;
78183;SDS011;67442;44.570;18.610;2023-03-08T00:48:39;230.85;;;74.25;;
78183;SDS011;67442;44.570;18.610;2023-03-08T00:51:07;134.70;;;47.25;;
78183;SDS011;67442;44.570;18.610;2023-03-08T00:53:40;190.68;;;62.92;;
78183;SDS011;67442;44.570;18.610;2023-03-08T00:56:08;196.52;;;67.18;;
78183;SDS011;67442;44.570;18.610;2023-03-08T00:58:35;160.80;;;58.72;;
78183;SDS011;67442;44.570;18.610;2023-03-08T01:01:05;167.93;;;58.30;;
78183;SDS011;67442;44.570;18.610;2023-03-08T01:03:34;190.40;;;65.38;;
78183;SDS011;67442;44.570;18.610;2023-03-08T01:06:05;462.95;;;141.25;;
78183;SDS011;67442;44.570;18.610;2023-03-08T01:08:34;161.35;;;61.03;;
78183;SDS011;67442;44.570;18.610;2023-03-08T01:11:01;166.80;;;54.60;;
78183;SDS011;67442;44.570;18.610;2023-03-08T01:13:29;161.57;;;52.88;;
78183;SDS011;67442;44.570;18.610;2023-03-08T01:15:57;166.38;;;56.55;;
78183;SDS011;67442;44.570;18.610;2023-03-08T01:18:29;130.95;;;46.35;;
78183;SDS011;67442;44.570;18.610;2023-03-08T01:21:00;121.55;;;41.35;;
78183;SDS011;67442;44.570;18.610;2023-03-08T01:23:31;326.55;;;111.13;;
78183;SDS011;67442;44.570;18.610;2023-03-08T01:25:59;121.65;;;41.45;;
78183;SDS011;67442;44.570;18.610;2023-03-08T01:28:46;102.63;;;37.10;;
78183;SDS011;67442;44.570;18.610;2023-03-08T01:31:15;122.82;;;40.92;;
78183;SDS011;67442;44.570;18.610;2023-03-08T01:34:05;122.43;;;41.22;;
78183;SDS011;67442;44.570;18.610;2023-03-08T01:36:36;303.55;;;97.95;;
78183;SDS011;67442;44.570;18.610;2023-03-08T01:39:03;83.57;;;31.40;;
78183;SDS011;67442;44.570;18.610;2023-03-08T01:41:31;65.47;;;23.10;;
78183;SDS011;67442;44.570;18.610;2023-03-08T01:43:58;125.53;;;42.22;;
78183;SDS011;67442;44.570;18.610;2023-03-08T01:46:25;139.05;;;47.92;;
78183;SDS011;67442;44.570;18.610;2023-03-08T01:54:54;108.60;;;36.25;;
78183;SDS011;67442;44.570;18.610;2023-03-08T01:57:18;105.72;;;36.28;;
78183;SDS011;67442;44.570;18.610;2023-03-08T01:59:52;100.57;;;34.20;;
78183;SDS011;67442;44.570;18.610;2023-03-08T02:02:24;113.15;;;37.47;;
78183;SDS011;67442;44.570;18.610;2023-03-08T02:04:56;120.10;;;39.63;;
78183;SDS011;67442;44.570;18.610;2023-03-08T02:07:23;86.97;;;31.52;;
78183;SDS011;67442;44.570;18.610;2023-03-08T02:09:50;133.00;;;45.03;;
78183;SDS011;67442;44.570;18.610;2023-03-08T02:12:17;90.43;;;31.40;;
78183;SDS011;67442;44.570;18.610;2023-03-08T02:14:49;83.53;;;28.85;;
78183;SDS011;67442;44.570;18.610;2023-03-08T02:17:19;99.25;;;31.92;;
78183;SDS011;67442;44.570;18.610;2023-03-08T02:19:48;84.63;;;31.55;;
78183;SDS011;67442;44.570;18.610;2023-03-08T02:22:37;96.03;;;31.55;;
78183;SDS011;67442;44.570;18.610;2023-03-08T02:25:11;80.45;;;29.02;;
78183;SDS011;67442;44.570;18.610;2023-03-08T02:27:41;103.55;;;32.50;;
78183;SDS011;67442;44.570;18.610;2023-03-08T02:30:12;67.90;;;24.13;;
78183;SDS011;67442;44.570;18.610;2023-03-08T02:32:45;59.20;;;23.15;;
78183;SDS011;67442;44.570;18.610;2023-03-08T02:35:12;75.30;;;27.83;;
78183;SDS011;67442;44.570;18.610;2023-03-08T02:37:43;57.17;;;20.58;;
78183;SDS011;67442;44.570;18.610;2023-03-08T02:40:10;59.53;;;20.52;;
78183;SDS011;67442;44.570;18.610;2023-03-08T02:42:38;50.15;;;20.65;;
78183;SDS011;67442;44.570;18.610;2023-03-08T02:45:05;114.20;;;35.58;;
78183;SDS011;67442;44.570;18.610;2023-03-08T02:47:34;71.53;;;28.60;;
78183;SDS011;67442;44.570;18.610;2023-03-08T02:50:01;53.53;;;19.13;;
78183;SDS011;67442;44.570;18.610;2023-03-08T02:52:28;60.03;;;21.20;;
78183;SDS011;67442;44.570;18.610;2023-03-08T02:54:59;48.30;;;17.63;;
78183;SDS011;67442;44.570;18.610;2023-03-08T02:57:27;40.75;;;15.43;;
78183;SDS011;67442;44.570;18.610;2023-03-08T02:59:54;41.00;;;14.93;;
78183;SDS011;67442;44.570;18.610;2023-03-08T03:02:21;36.08;;;15.77;;
78183;SDS011;67442;44.570;18.610;2023-03-08T03:04:49;42.70;;;16.10;;
78183;SDS011;67442;44.570;18.610;2023-03-08T03:07:15;43.15;;;15.38;;
78183;SDS011;67442;44.570;18.610;2023-03-08T03:09:43;46.08;;;16.30;;
78183;SDS011;67442;44.570;18.610;2023-03-08T03:12:14;52.78;;;18.33;;
78183;SDS011;67442;44.570;18.610;2023-03-08T03:14:42;42.80;;;19.90;;
78183;SDS011;67442;44.570;18.610;2023-03-08T03:17:12;39.47;;;16.75;;
78183;SDS011;67442;44.570;18.610;2023-03-08T03:19:40;36.78;;;14.80;;
78183;SDS011;67442;44.570;18.610;2023-03-08T03:22:06;41.45;;;16.85;;
78183;SDS011;67442;44.570;18.610;2023-03-08T03:24:34;79.85;;;27.30;;
78183;SDS011;67442;44.570;18.610;2023-03-08T03:27:01;69.85;;;25.85;;
78183;SDS011;67442;44.570;18.610;2023-03-08T03:29:29;63.80;;;23.17;;
78183;SDS011;67442;44.570;18.610;2023-03-08T03:31:56;62.47;;;24.48;;
78183;SDS011;67442;44.570;18.610;2023-03-08T03:34:23;64.40;;;24.67;;
78183;SDS011;67442;44.570;18.610;2023-03-08T03:36:51;95.82;;;37.95;;
78183;SDS011;67442;44.570;18.610;2023-03-08T03:39:18;76.60;;;30.48;;
78183;SDS011;67442;44.570;18.610;2023-03-08T03:41:45;66.75;;;27.05;;
78183;SDS011;67442;44.570;18.610;2023-03-08T03:44:13;57.88;;;23.73;;
78183;SDS011;67442;44.570;18.610;2023-03-08T03:46:40;45.13;;;18.60;;
78183;SDS011;67442;44.570;18.610;2023-03-08T03:49:11;67.88;;;23.98;;
78183;SDS011;67442;44.570;18.610;2023-03-08T03:51:38;69.32;;;24.00;;
78183;SDS011;67442;44.570;18.610;2023-03-08T03:54:06;78.78;;;30.80;;
78183;SDS011;67442;44.570;18.610;2023-03-08T03:56:37;78.63;;;28.88;;
78183;SDS011;67442;44.570;18.610;2023-03-08T03:59:04;93.57;;;33.15;;
78183;SDS011;67442;44.570;18.610;2023-03-08T04:01:30;62.85;;;26.35;;
78183;SDS011;67442;44.570;18.610;2023-03-08T04:03:58;77.03;;;25.58;;
78183;SDS011;67442;44.570;18.610;2023-03-08T04:06:29;58.70;;;22.15;;
78183;SDS011;67442;44.570;18.610;2023-03-08T04:08:58;114.00;;;34.85;;
78183;SDS011;67442;44.570;18.610;2023-03-08T04:11:27;76.93;;;28.05;;
78183;SDS011;67442;44.570;18.610;2023-03-08T04:13:56;67.63;;;25.17;;
78183;SDS011;67442;44.570;18.610;2023-03-08T04:16:23;68.63;;;26.88;;
78183;SDS011;67442;44.570;18.610;2023-03-08T04:18:52;61.42;;;24.00;;
78183;SDS011;67442;44.570;18.610;2023-03-08T04:21:20;62.33;;;24.55;;
78183;SDS011;67442;44.570;18.610;2023-03-08T04:23:51;69.85;;;27.20;;
78183;SDS011;67442;44.570;18.610;2023-03-08T04:26:19;71.65;;;26.27;;
78183;SDS011;67442;44.570;18.610;2023-03-08T04:28:47;67.85;;;26.27;;
78183;SDS011;67442;44.570;18.610;2023-03-08T04:31:14;73.47;;;23.17;;
78183;SDS011;67442;44.570;18.610;2023-03-08T04:33:44;76.05;;;25.67;;
78183;SDS011;67442;44.570;18.610;2023-03-08T04:36:14;97.65;;;29.88;;
78183;SDS011;67442;44.570;18.610;2023-03-08T04:38:42;60.83;;;21.10;;
78183;SDS011;67442;44.570;18.610;2023-03-08T04:41:10;41.88;;;15.05;;
78183;SDS011;67442;44.570;18.610;2023-03-08T04:43:37;37.35;;;14.57;;
78183;SDS011;67442;44.570;18.610;2023-03-08T04:46:18;42.70;;;17.25;;
78183;SDS011;67442;44.570;18.610;2023-03-08T04:48:47;52.90;;;20.63;;
78183;SDS011;67442;44.570;18.610;2023-03-08T04:51:23;52.13;;;19.20;;
78183;SDS011;67442;44.570;18.610;2023-03-08T04:53:50;52.88;;;21.27;;
78183;SDS011;67442;44.570;18.610;2023-03-08T04:56:17;71.57;;;22.80;;
78183;SDS011;67442;44.570;18.610;2023-03-08T04:58:44;53.55;;;19.73;;
78183;SDS011;67442;44.570;18.610;2023-03-08T05:01:12;51.22;;;20.85;;
78183;SDS011;67442;44.570;18.610;2023-03-08T05:03:58;59.70;;;21.73;;
78183;SDS011;67442;44.570;18.610;2023-03-08T05:06:26;37.13;;;15.18;;
78183;SDS011;67442;44.570;18.610;2023-03-08T05:08:53;82.78;;;29.38;;
78183;SDS011;67442;44.570;18.610;2023-03-08T05:11:25;78.07;;;32.20;;
78183;SDS011;67442;44.570;18.610;2023-03-08T05:13:57;64.80;;;27.38;;
78183;SDS011;67442;44.570;18.610;2023-03-08T05:16:28;74.38;;;27.48;;
78183;SDS011;67442;44.570;18.610;2023-03-08T05:18:55;47.42;;;18.77;;
78183;SDS011;67442;44.570;18.610;2023-03-08T05:21:22;39.00;;;15.90;;
78183;SDS011;67442;44.570;18.610;2023-03-08T05:23:49;98.93;;;31.42;;
78183;SDS011;67442;44.570;18.610;2023-03-08T05:26:17;68.78;;;22.80;;
78183;SDS011;67442;44.570;18.610;2023-03-08T05:28:44;67.72;;;24.65;;
78183;SDS011;67442;44.570;18.610;2023-03-08T05:31:15;82.97;;;29.88;;
78183;SDS011;67442;44.570;18.610;2023-03-08T05:33:44;86.75;;;31.63;;
78183;SDS011;67442;44.570;18.610;2023-03-08T05:36:12;65.75;;;23.25;;
78183;SDS011;67442;44.570;18.610;2023-03-08T05:38:43;185.85;;;47.83;;
78183;SDS011;67442;44.570;18.610;2023-03-08T05:41:12;80.40;;;29.52;;
78183;SDS011;67442;44.570;18.610;2023-03-08T05:43:40;88.05;;;28.90;;
78183;SDS011;67442;44.570;18.610;2023-03-08T05:46:09;97.18;;;28.58;;
78183;SDS011;67442;44.570;18.610;2023-03-08T05:48:41;66.18;;;21.33;;
78183;SDS011;67442;44.570;18.610;2023-03-08T05:51:09;58.40;;;20.92;;
78183;SDS011;67442;44.570;18.610;2023-03-08T05:53:36;40.67;;;14.25;;
78183;SDS011;67442;44.570;18.610;2023-03-08T05:56:12;68.47;;;24.08;;
78183;SDS011;67442;44.570;18.610;2023-03-08T05:58:44;77.22;;;28.38;;
78183;SDS011;67442;44.570;18.610;2023-03-08T06:01:16;68.72;;;23.30;;
78183;SDS011;67442;44.570;18.610;2023-03-08T06:03:45;70.47;;;24.38;;
78183;SDS011;67442;44.570;18.610;2023-03-08T06:06:14;51.40;;;19.73;;
78183;SDS011;67442;44.570;18.610;2023-03-08T06:08:41;56.17;;;18.60;;
78183;SDS011;67442;44.570;18.610;2023-03-08T06:11:09;84.50;;;24.95;;
78183;SDS011;67442;44.570;18.610;2023-03-08T06:13:35;89.20;;;34.13;;
78183;SDS011;67442;44.570;18.610;2023-03-08T06:16:06;116.43;;;37.55;;
78183;SDS011;67442;44.570;18.610;2023-03-08T06:18:37;109.20;;;35.90;;
78183;SDS011;67442;44.570;18.610;2023-03-08T06:21:11;120.80;;;39.28;;
78183;SDS011;67442;44.570;18.610;2023-03-08T06:23:39;165.10;;;50.90;;
78183;SDS011;67442;44.570;18.610;2023-03-08T06:26:10;176.52;;;54.88;;
78183;SDS011;67442;44.570;18.610;2023-03-08T06:28:37;164.55;;;51.53;;
78183;SDS011;67442;44.570;18.610;2023-03-08T06:31:07;152.43;;;52.97;;
78183;SDS011;67442;44.570;18.610;2023-03-08T06:33:38;175.60;;;62.53;;
78183;SDS011;67442;44.570;18.610;2023-03-08T06:38:36;195.50;;;67.88;;
78183;SDS011;67442;44.570;18.610;2023-03-08T06:41:03;247.27;;;83.05;;
78183;SDS011;67442;44.570;18.610;2023-03-08T06:43:34;95.55;;;37.95;;
78183;SDS011;67442;44.570;18.610;2023-03-08T06:46:02;93.13;;;36.83;;
78183;SDS011;67442;44.570;18.610;2023-03-08T06:48:33;117.70;;;45.38;;
78183;SDS011;67442;44.570;18.610;2023-03-08T06:51:01;133.13;;;48.45;;
78183;SDS011;67442;44.570;18.610;2023-03-08T06:53:29;88.07;;;33.25;;
78183;SDS011;67442;44.570;18.610;2023-03-08T06:56:00;96.97;;;39.70;;
78183;SDS011;67442;44.570;18.610;2023-03-08T06:58:29;84.20;;;33.83;;
78183;SDS011;67442;44.570;18.610;2023-03-08T07:00:59;82.65;;;33.72;;
78183;SDS011;67442;44.570;18.610;2023-03-08T07:03:29;84.00;;;30.73;;
78183;SDS011;67442;44.570;18.610;2023-03-08T07:05:59;80.35;;;30.38;;
78183;SDS011;67442;44.570;18.610;2023-03-08T07:08:31;72.80;;;27.63;;
78183;SDS011;67442;44.570;18.610;2023-03-08T07:10:57;60.28;;;26.23;;
78183;SDS011;67442;44.570;18.610;2023-03-08T07:13:25;66.25;;;28.92;;
78183;SDS011;67442;44.570;18.610;2023-03-08T07:15:54;71.50;;;27.80;;
78183;SDS011;67442;44.570;18.610;2023-03-08T07:18:21;66.82;;;26.80;;
78183;SDS011;67442;44.570;18.610;2023-03-08T07:20:52;78.20;;;29.98;;
78183;SDS011;67442;44.570;18.610;2023-03-08T07:23:22;100.35;;;45.00;;
78183;SDS011;67442;44.570;18.610;2023-03-08T07:25:49;66.75;;;25.73;;
78183;SDS011;67442;44.570;18.610;2023-03-08T07:28:17;47.22;;;20.02;;
78183;SDS011;67442;44.570;18.610;2023-03-08T07:30:47;143.90;;;54.92;;
78183;SDS011;67442;44.570;18.610;2023-03-08T07:33:16;264.73;;;111.22;;
78183;SDS011;67442;44.570;18.610;2023-03-08T07:35:44;166.85;;;72.90;;
78183;SDS011;67442;44.570;18.610;2023-03-08T07:38:16;147.63;;;61.30;;
78183;SDS011;67442;44.570;18.610;2023-03-08T07:40:42;93.88;;;40.92;;
78183;SDS011;67442;44.570;18.610;2023-03-08T07:43:09;28.88;;;9.93;;
78183;SDS011;67442;44.570;18.610;2023-03-08T07:45:39;25.58;;;9.73;;
78183;SDS011;67442;44.570;18.610;2023-03-08T07:48:11;18.38;;;7.78;;
78183;SDS011;67442;44.570;18.610;2023-03-08T07:50:39;18.42;;;6.50;;
78183;SDS011;67442;44.570;18.610;2023-03-08T07:53:05;20.38;;;7.43;;
78183;SDS011;67442;44.570;18.610;2023-03-08T07:55:32;14.68;;;6.55;;
78183;SDS011;67442;44.570;18.610;2023-03-08T07:58:02;25.83;;;5.72;;
78183;SDS011;67442;44.570;18.610;2023-03-08T08:00:29;30.58;;;18.63;;
78183;SDS011;67442;44.570;18.610;2023-03-08T08:02:59;13.65;;;4.43;;
78183;SDS011;67442;44.570;18.610;2023-03-08T08:05:27;10.38;;;3.60;;
78183;SDS011;67442;44.570;18.610;2023-03-08T08:07:54;12.10;;;4.78;;
78183;SDS011;67442;44.570;18.610;2023-03-08T08:10:21;17.67;;;10.52;;
78183;SDS011;67442;44.570;18.610;2023-03-08T08:12:49;18.85;;;9.18;;
78183;SDS011;67442;44.570;18.610;2023-03-08T08:15:19;9.68;;;4.15;;
78183;SDS011;67442;44.570;18.610;2023-03-08T08:17:50;12.10;;;5.43;;
78183;SDS011;67442;44.570;18.610;2023-03-08T08:20:17;11.65;;;4.97;;
78183;SDS011;67442;44.570;18.610;2023-03-08T08:22:44;10.73;;;4.88;;
78183;SDS011;67442;44.570;18.610;2023-03-08T08:25:12;16.55;;;6.80;;
78183;SDS011;67442;44.570;18.610;2023-03-08T08:27:39;14.32;;;5.20;;
78183;SDS011;67442;44.570;18.610;2023-03-08T08:30:06;12.18;;;5.38;;
78183;SDS011;67442;44.570;18.610;2023-03-08T08:32:37;15.98;;;6.65;;
78183;SDS011;67442;44.570;18.610;2023-03-08T08:35:04;11.60;;;4.53;;
78183;SDS011;67442;44.570;18.610;2023-03-08T08:37:32;12.38;;;5.07;;
78183;SDS011;67442;44.570;18.610;2023-03-08T08:40:03;9.88;;;5.10;;
78183;SDS011;67442;44.570;18.610;2023-03-08T08:42:33;19.95;;;5.10;;
78183;SDS011;67442;44.570;18.610;2023-03-08T08:45:00;14.18;;;4.82;;
78183;SDS011;67442;44.570;18.610;2023-03-08T08:47:28;11.23;;;4.53;;
78183;SDS011;67442;44.570;18.610;2023-03-08T08:49:55;10.60;;;4.93;;
78183;SDS011;67442;44.570;18.610;2023-03-08T08:52:27;12.70;;;4.85;;
78183;SDS011;67442;44.570;18.610;2023-03-08T08:54:54;17.40;;;5.70;;
78183;SDS011;67442;44.570;18.610;2023-03-08T08:57:22;40.40;;;17.73;;
78183;SDS011;67442;44.570;18.610;2023-03-08T08:59:49;23.48;;;8.20;;
78183;SDS011;67442;44.570;18.610;2023-03-08T09:02:16;11.30;;;4.85;;
78183;SDS011;67442;44.570;18.610;2023-03-08T09:04:43;14.65;;;5.15;;
78183;SDS011;67442;44.570;18.610;2023-03-08T09:07:11;12.32;;;4.93;;
78183;SDS011;67442;44.570;18.610;2023-03-08T09:09:38;12.32;;;5.78;;
78183;SDS011;67442;44.570;18.610;2023-03-08T09:12:09;15.85;;;7.20;;
78183;SDS011;67442;44.570;18.610;2023-03-08T09:14:37;16.30;;;7.32;;
78183;SDS011;67442;44.570;18.610;2023-03-08T09:17:07;11.35;;;5.00;;
78183;SDS011;67442;44.570;18.610;2023-03-08T09:19:36;11.73;;;4.63;;
78183;SDS011;67442;44.570;18.610;2023-03-08T09:22:03;13.05;;;4.75;;
78183;SDS011;67442;44.570;18.610;2023-03-08T09:24:31;12.98;;;5.30;;
78183;SDS011;67442;44.570;18.610;2023-03-08T09:26:58;14.57;;;5.25;;
78183;SDS011;67442;44.570;18.610;2023-03-08T09:29:29;12.70;;;4.88;;
78183;SDS011;67442;44.570;18.610;2023-03-08T09:31:57;13.13;;;5.07;;
78183;SDS011;67442;44.570;18.610;2023-03-08T09:34:24;19.00;;;5.00;;
78183;SDS011;67442;44.570;18.610;2023-03-08T09:36:52;15.65;;;4.38;;
78183;SDS011;67442;44.570;18.610;2023-03-08T09:39:19;7.63;;;3.72;;
78183;SDS011;67442;44.570;18.610;2023-03-08T09:41:56;13.25;;;3.90;;
78183;SDS011;67442;44.570;18.610;2023-03-08T09:44:47;8.43;;;4.65;;
78183;SDS011;67442;44.570;18.610;2023-03-08T09:50:18;10.23;;;4.05;;
78183;SDS011;67442;44.570;18.610;2023-03-08T09:56:05;9.60;;;3.78;;
78183;SDS011;67442;44.570;18.610;2023-03-08T09:58:40;11.52;;;3.20;;
78183;SDS011;67442;44.570;18.610;2023-03-08T10:01:26;10.70;;;3.50;;
78183;SDS011;67442;44.570;18.610;2023-03-08T10:07:09;11.82;;;3.83;;
78183;SDS011;67442;44.570;18.610;2023-03-08T10:09:48;9.52;;;4.45;;
78183;SDS011;67442;44.570;18.610;2023-03-08T10:15:21;10.32;;;4.45;;
78183;SDS011;67442;44.570;18.610;2023-03-08T10:20:22;36.63;;;15.80;;
78183;SDS011;67442;44.570;18.610;2023-03-08T10:22:52;6.72;;;3.40;;
78183;SDS011;67442;44.570;18.610;2023-03-08T10:25:40;8.63;;;3.42;;
78183;SDS011;67442;44.570;18.610;2023-03-08T10:28:13;15.68;;;5.10;;
78183;SDS011;67442;44.570;18.610;2023-03-08T10:30:49;6.93;;;2.80;;
78183;SDS011;67442;44.570;18.610;2023-03-08T10:33:16;16.50;;;6.20;;
78183;SDS011;67442;44.570;18.610;2023-03-08T10:38:30;5.75;;;2.05;;
78183;SDS011;67442;44.570;18.610;2023-03-08T10:41:00;13.30;;;2.50;;
78183;SDS011;67442;44.570;18.610;2023-03-08T10:43:33;10.30;;;3.72;;
78183;SDS011;67442;44.570;18.610;2023-03-08T10:46:11;9.65;;;3.47;;
78183;SDS011;67442;44.570;18.610;2023-03-08T10:48:40;14.13;;;4.68;;
78183;SDS011;67442;44.570;18.610;2023-03-08T10:51:23;8.07;;;3.15;;
78183;SDS011;67442;44.570;18.610;2023-03-08T10:58:56;13.27;;;4.53;;
78183;SDS011;67442;44.570;18.610;2023-03-08T11:03:59;9.60;;;5.13;;
78183;SDS011;67442;44.570;18.610;2023-03-08T11:06:53;5.57;;;3.20;;
78183;SDS011;67442;44.570;18.610;2023-03-08T11:11:55;7.15;;;3.00;;
78183;SDS011;67442;44.570;18.610;2023-03-08T11:14:27;8.77;;;3.80;;
78183;SDS011;67442;44.570;18.610;2023-03-08T11:25:02;11.43;;;3.55;;
78183;SDS011;67442;44.570;18.610;2023-03-08T11:27:43;14.02;;;3.53;;
78183;SDS011;67442;44.570;18.610;2023-03-08T11:33:43;12.60;;;4.20;;
78183;SDS011;67442;44.570;18.610;2023-03-08T11:39:53;20.65;;;12.30;;
78183;SDS011;67442;44.570;18.610;2023-03-08T11:45:28;11.25;;;3.78;;
78183;SDS011;67442;44.570;18.610;2023-03-08T11:48:05;10.50;;;4.13;;
78183;SDS011;67442;44.570;18.610;2023-03-08T11:51:10;6.80;;;2.70;;
78183;SDS011;67442;44.570;18.610;2023-03-08T11:53:53;7.03;;;2.92;;
78183;SDS011;67442;44.570;18.610;2023-03-08T11:59:12;9.27;;;3.67;;
78183;SDS011;67442;44.570;18.610;2023-03-08T12:02:18;7.70;;;3.20;;
78183;SDS011;67442;44.570;18.610;2023-03-08T12:08:17;12.90;;;5.43;;
78183;SDS011;67442;44.570;18.610;2023-03-08T12:10:54;8.60;;;4.05;;
78183;SDS011;67442;44.570;18.610;2023-03-08T12:16:01;11.95;;;4.15;;
78183;SDS011;67442;44.570;18.610;2023-03-08T12:24:25;11.23;;;5.35;;
78183;SDS011;67442;44.570;18.610;2023-03-08T12:26:55;5.10;;;2.92;;
78183;SDS011;67442;44.570;18.610;2023-03-08T12:32:30;8.07;;;4.05;;
78183;SDS011;67442;44.570;18.610;2023-03-08T12:35:05;7.90;;;3.38;;
78183;SDS011;67442;44.570;18.610;2023-03-08T12:37:56;12.50;;;5.00;;
78183;SDS011;67442;44.570;18.610;2023-03-08T12:43:12;12.43;;;4.93;;
78183;SDS011;67442;44.570;18.610;2023-03-08T12:48:53;9.75;;;3.55;;
78183;SDS011;67442;44.570;18.610;2023-03-08T12:51:31;52.28;;;21.58;;
78183;SDS011;67442;44.570;18.610;2023-03-08T12:53:59;22.95;;;8.23;;
78183;SDS011;67442;44.570;18.610;2023-03-08T12:56:37;5.47;;;3.00;;
78183;SDS011;67442;44.570;18.610;2023-03-08T13:14:41;7.05;;;3.42;;
78183;SDS011;67442;44.570;18.610;2023-03-08T13:20:00;11.65;;;6.03;;
78183;SDS011;67442;44.570;18.610;2023-03-08T13:36:50;10.25;;;4.20;;
78183;SDS011;67442;44.570;18.610;2023-03-08T13:39:18;14.32;;;5.95;;
78183;SDS011;67442;44.570;18.610;2023-03-08T13:41:47;9.77;;;4.18;;
78183;SDS011;67442;44.570;18.610;2023-03-08T13:44:16;6.88;;;3.55;;
78183;SDS011;67442;44.570;18.610;2023-03-08T13:49:28;5.68;;;2.40;;
78183;SDS011;67442;44.570;18.610;2023-03-08T13:51:56;7.50;;;3.05;;
78183;SDS011;67442;44.570;18.610;2023-03-08T13:54:31;8.85;;;3.42;;
78183;SDS011;67442;44.570;18.610;2023-03-08T13:57:02;5.10;;;2.30;;
78183;SDS011;67442;44.570;18.610;2023-03-08T13:59:31;6.13;;;2.83;;
78183;SDS011;67442;44.570;18.610;2023-03-08T14:02:00;3.53;;;1.67;;
78183;SDS011;67442;44.570;18.610;2023-03-08T14:04:28;8.32;;;4.45;;
78183;SDS011;67442;44.570;18.610;2023-03-08T14:06:59;4.80;;;2.00;;
78183;SDS011;67442;44.570;18.610;2023-03-08T14:09:32;6.72;;;2.65;;
78183;SDS011;67442;44.570;18.610;2023-03-08T14:12:04;10.73;;;3.88;;
78183;SDS011;67442;44.570;18.610;2023-03-08T14:14:38;7.03;;;2.90;;
78183;SDS011;67442;44.570;18.610;2023-03-08T14:17:13;5.85;;;2.65;;
78183;SDS011;67442;44.570;18.610;2023-03-08T14:19:58;4.93;;;2.70;;
78183;SDS011;67442;44.570;18.610;2023-03-08T14:22:27;4.05;;;2.47;;
78183;SDS011;67442;44.570;18.610;2023-03-08T14:24:56;5.28;;;2.42;;
78183;SDS011;67442;44.570;18.610;2023-03-08T14:27:39;4.38;;;2.22;;
78183;SDS011;67442;44.570;18.610;2023-03-08T14:32:40;4.05;;;2.65;;
78183;SDS011;67442;44.570;18.610;2023-03-08T14:35:35;5.35;;;2.67;;
78183;SDS011;67442;44.570;18.610;2023-03-08T14:38:22;6.60;;;2.63;;
78183;SDS011;67442;44.570;18.610;2023-03-08T14:40:54;8.70;;;3.00;;
78183;SDS011;67442;44.570;18.610;2023-03-08T14:43:22;6.20;;;2.60;;
78183;SDS011;67442;44.570;18.610;2023-03-08T14:48:28;8.63;;;2.80;;
78183;SDS011;67442;44.570;18.610;2023-03-08T14:55:56;10.70;;;3.50;;
78183;SDS011;67442;44.570;18.610;2023-03-08T14:58:29;5.80;;;3.22;;
78183;SDS011;67442;44.570;18.610;2023-03-08T15:00:59;6.32;;;2.92;;
78183;SDS011;67442;44.570;18.610;2023-03-08T15:03:30;5.07;;;3.13;;
78183;SDS011;67442;44.570;18.610;2023-03-08T15:05:58;6.38;;;2.75;;
78183;SDS011;67442;44.570;18.610;2023-03-08T15:08:51;7.68;;;3.03;;
78183;SDS011;67442;44.570;18.610;2023-03-08T15:11:19;5.40;;;2.95;;
78183;SDS011;67442;44.570;18.610;2023-03-08T15:13:50;11.10;;;5.15;;
78183;SDS011;67442;44.570;18.610;2023-03-08T15:16:17;11.00;;;4.45;;
78183;SDS011;67442;44.570;18.610;2023-03-08T15:18:45;5.88;;;3.22;;
78183;SDS011;67442;44.570;18.610;2023-03-08T15:21:20;7.97;;;3.60;;
78183;SDS011;67442;44.570;18.610;2023-03-08T15:23:53;10.30;;;4.45;;
78183;SDS011;67442;44.570;18.610;2023-03-08T15:26:24;8.18;;;4.20;;
78183;SDS011;67442;44.570;18.610;2023-03-08T15:28:53;7.40;;;3.20;;
78183;SDS011;67442;44.570;18.610;2023-03-08T15:31:20;7.55;;;3.80;;
78183;SDS011;67442;44.570;18.610;2023-03-08T15:33:47;8.88;;;4.55;;
78183;SDS011;67442;44.570;18.610;2023-03-08T15:36:18;8.73;;;3.13;;
78183;SDS011;67442;44.570;18.610;2023-03-08T15:38:46;8.82;;;3.67;;
78183;SDS011;67442;44.570;18.610;2023-03-08T15:41:16;11.57;;;4.55;;
78183;SDS011;67442;44.570;18.610;2023-03-08T15:43:44;13.18;;;4.85;;
78183;SDS011;67442;44.570;18.610;2023-03-08T15:46:12;9.70;;;4.03;;
78183;SDS011;67442;44.570;18.610;2023-03-08T15:48:40;9.55;;;4.70;;
78183;SDS011;67442;44.570;18.610;2023-03-08T15:51:16;17.73;;;7.43;;
78183;SDS011;67442;44.570;18.610;2023-03-08T15:53:45;8.38;;;4.45;;
78183;SDS011;67442;44.570;18.610;2023-03-08T15:56:13;10.80;;;6.68;;
78183;SDS011;67442;44.570;18.610;2023-03-08T15:58:40;13.10;;;4.05;;
78183;SDS011;67442;44.570;18.610;2023-03-08T16:01:07;22.90;;;11.32;;
78183;SDS011;67442;44.570;18.610;2023-03-08T16:03:36;14.00;;;5.93;;
78183;SDS011;67442;44.570;18.610;2023-03-08T16:06:07;27.45;;;10.65;;
78183;SDS011;67442;44.570;18.610;2023-03-08T16:08:35;16.17;;;5.70;;
78183;SDS011;67442;44.570;18.610;2023-03-08T16:11:05;16.65;;;7.43;;
78183;SDS011;67442;44.570;18.610;2023-03-08T16:13:32;27.00;;;10.55;;
78183;SDS011;67442;44.570;18.610;2023-03-08T16:16:00;19.42;;;7.93;;
78183;SDS011;67442;44.570;18.610;2023-03-08T16:18:28;13.95;;;5.80;;
78183;SDS011;67442;44.570;18.610;2023-03-08T16:20:56;16.23;;;7.97;;
78183;SDS011;67442;44.570;18.610;2023-03-08T16:23:23;18.75;;;7.35;;
78183;SDS011;67442;44.570;18.610;2023-03-08T16:26:01;19.10;;;9.05;;
78183;SDS011;67442;44.570;18.610;2023-03-08T16:28:30;18.75;;;7.95;;
78183;SDS011;67442;44.570;18.610;2023-03-08T16:31:01;13.90;;;6.32;;
78183;SDS011;67442;44.570;18.610;2023-03-08T16:33:28;18.58;;;6.70;;
78183;SDS011;67442;44.570;18.610;2023-03-08T16:35:58;12.38;;;6.32;;